Home > Products > Valid Products > TAF

000
FTUS45 KCYS 201900 AAA
TAFRWL
TAF AMD
KRWL 201904Z 2019/2118 24013G20KT P6SM SKC
     FM210100 VRB03KT P6SM BKN250=



000
FTUS45 KCYS 201900 AAA
TAFRWL
TAF AMD
KRWL 201904Z 2019/2118 24013G20KT P6SM SKC
     FM210100 VRB03KT P6SM BKN250=



000
FTUS45 KCYS 201700
TAFLAR
TAF
KLAR 201721Z 2018/2118 20008KT P6SM FEW100
     FM210300 16007KT P6SM SCT250=



000
FTUS45 KCYS 201700
TAFCYS
TAF
KCYS 201721Z 2018/2118 19013KT P6SM SKC
     FM210500 26008KT P6SM SCT300=



000
FTUS45 KCYS 201700
TAFRWL
TAF
KRWL 201721Z 2018/2118 VRB04KT P6SM SKC
     FM202000 22013G20KT P6SM SKC
     FM210100 VRB03KT P6SM BKN250=



000
FTUS45 KCYS 201700
TAFRWL
TAF
KRWL 201721Z 2018/2118 VRB04KT P6SM SKC
     FM202000 22013G20KT P6SM SKC
     FM210100 VRB03KT P6SM BKN250=



000
FTUS45 KCYS 201700
TAFCYS
TAF
KCYS 201721Z 2018/2118 19013KT P6SM SKC
     FM210500 26008KT P6SM SCT300=



000
FTUS45 KCYS 201700
TAFLAR
TAF
KLAR 201721Z 2018/2118 20008KT P6SM FEW100
     FM210300 16007KT P6SM SCT250=



000
FTUS45 KCYS 201100
TAFRWL
TAF
KRWL 201120Z 2012/2112 VRB05KT P6SM SKC
     FM201700 23015G25KT P6SM SKC
     FM210100 23006KT P6SM SKC=



000
FTUS45 KCYS 201100
TAFCYS
TAF
KCYS 201120Z 2012/2112 26006KT P6SM SKC
     FM201700 18010KT P6SM FEW100
     FM210300 21009KT P6SM SKC=



000
FTUS45 KCYS 201100
TAFCYS
TAF
KCYS 201120Z 2012/2112 26006KT P6SM SKC
     FM201700 18010KT P6SM FEW100
     FM210300 21009KT P6SM SKC=



000
FTUS45 KCYS 201100
TAFRWL
TAF
KRWL 201120Z 2012/2112 VRB05KT P6SM SKC
     FM201700 23015G25KT P6SM SKC
     FM210100 23006KT P6SM SKC=



000
FTUS45 KCYS 201100
TAFLAR
TAF
KLAR 201120Z 2012/2112 15007KT P6SM SKC
     FM201800 20009KT P6SM FEW100
     FM210300 16007KT P6SM SKC=



000
FTUS45 KCYS 201100
TAFLAR
TAF
KLAR 201120Z 2012/2112 15007KT P6SM SKC
     FM201800 20009KT P6SM FEW100
     FM210300 16007KT P6SM SKC=



000
FTUS45 KCYS 200500
TAFCYS
TAF
KCYS 200538Z 2006/2106 26006KT P6SM SKC
     FM201700 18010KT P6SM FEW100
     FM210300 21009KT P6SM SKC=



000
FTUS45 KCYS 200500
TAFLAR
TAF
KLAR 200538Z 2006/2106 15007KT P6SM SKC
     FM201800 20009KT P6SM FEW100
     FM210300 16007KT P6SM SKC=



000
FTUS45 KCYS 200500
TAFRWL
TAF
KRWL 200538Z 2006/2106 VRB05KT P6SM SKC
     FM201700 23015G25KT P6SM SKC
     FM210100 23006KT P6SM SKC=



000
FTUS45 KCYS 200500
TAFCYS
TAF
KCYS 200538Z 2006/2106 26006KT P6SM SKC
     FM201700 18010KT P6SM FEW100
     FM210300 21009KT P6SM SKC=



000
FTUS45 KCYS 200500
TAFLAR
TAF
KLAR 200538Z 2006/2106 15007KT P6SM SKC
     FM201800 20009KT P6SM FEW100
     FM210300 16007KT P6SM SKC=



000
FTUS45 KCYS 200500
TAFRWL
TAF
KRWL 200538Z 2006/2106 VRB05KT P6SM SKC
     FM201700 23015G25KT P6SM SKC
     FM210100 23006KT P6SM SKC=



000
FTUS45 KCYS 192300 RRA
TAFCYS
TAF
KCYS 192345Z 2000/2024 06008KT P6SM SKC
     FM200600 17005KT P6SM SKC=



000
FTUS45 KCYS 192300 RRA
TAFLAR
TAF
KLAR 192345Z 2000/2024 09007KT P6SM SKC
     FM200500 16007KT P6SM SKC=



000
FTUS45 KCYS 192300 RRA
TAFLAR
TAF
KLAR 192345Z 2000/2024 09007KT P6SM SKC
     FM200500 16007KT P6SM SKC=



000
FTUS45 KCYS 192300 RRA
TAFRWL
TAF
KRWL 192345Z 2000/2024 22008KT P6SM SKC
     FM200200 VRB05KT P6SM SKC
     FM201500 22008KT P6SM FEW080=



000
FTUS45 KCYS 192300 RRA
TAFCYS
TAF
KCYS 192345Z 2000/2024 06008KT P6SM SKC
     FM200600 17005KT P6SM SKC=



000
FTUS45 KCYS 192300 RRA
TAFRWL
TAF
KRWL 192345Z 2000/2024 22008KT P6SM SKC
     FM200200 VRB05KT P6SM SKC
     FM201500 22008KT P6SM FEW080=



000
FTUS45 KCYS 192300 RRA
TAFRWL
TAF
KRWL 192345Z 2000/2024 22008KT P6SM SKC
     FM200200 VRB05KT P6SM SKC
     FM201500 22008KT P6SM FEW080=



000
FTUS45 KCYS 192300 RRA
TAFCYS
TAF
KCYS 192345Z 2000/2024 06008KT P6SM SKC
     FM200600 17005KT P6SM SKC=



000
FTUS45 KCYS 192300 RRA
TAFLAR
TAF
KLAR 192345Z 2000/2024 09007KT P6SM SKC
     FM200500 16007KT P6SM SKC=



000
FTUS45 KCYS 192300 RRA
TAFRWL
TAF
KRWL 192345Z 2000/2024 22008KT P6SM SKC
     FM200200 VRB05KT P6SM SKC
     FM201500 22008KT P6SM FEW080=



000
FTUS45 KCYS 192300 RRA
TAFLAR
TAF
KLAR 192345Z 2000/2024 09007KT P6SM SKC
     FM200500 16007KT P6SM SKC=



000
FTUS45 KCYS 192300 RRA
TAFCYS
TAF
KCYS 192345Z 2000/2024 06008KT P6SM SKC
     FM200600 17005KT P6SM SKC=



000
FTUS45 KCYS 191700
TAFRWL
TAF
KRWL 191723Z 1918/2018 22008KT P6SM SKC
     FM200200 VRB05KT P6SM SKC
     FM201500 22008KT P6SM FEW080=



000
FTUS45 KCYS 191700
TAFRWL
TAF
KRWL 191723Z 1918/2018 22008KT P6SM SKC
     FM200200 VRB05KT P6SM SKC
     FM201500 22008KT P6SM FEW080=



000
FTUS45 KCYS 191700
TAFCYS
TAF
KCYS 191723Z 1918/2018 02008G18KT P6SM SKC
     FM192300 06008KT P6SM SKC
     FM200600 17005KT P6SM SKC=



000
FTUS45 KCYS 191700
TAFLAR
TAF
KLAR 191723Z 1918/2018 01008G18KT P6SM SKC
     FM200000 09007KT P6SM SKC
     FM200500 16007KT P6SM SKC=



000
FTUS45 KCYS 191100
TAFLAR
TAF
KLAR 191120Z 1912/2012 15004KT P6SM SKC
     FM191800 35006KT P6SM SCT200
     FM200000 13007KT P6SM SKC=



000
FTUS45 KCYS 191100
TAFRWL
TAF
KRWL 191120Z 1912/2012 VRB03KT P6SM SKC
     FM191800 25008KT P6SM SKC
     FM200200 00000KT P6SM SKC=



000
FTUS45 KCYS 191100
TAFRWL
TAF
KRWL 191120Z 1912/2012 VRB03KT P6SM SKC
     FM191800 25008KT P6SM SKC
     FM200200 00000KT P6SM SKC=



000
FTUS45 KCYS 191100
TAFLAR
TAF
KLAR 191120Z 1912/2012 15004KT P6SM SKC
     FM191800 35006KT P6SM SCT200
     FM200000 13007KT P6SM SKC=



000
FTUS45 KCYS 191100
TAFCYS
TAF
KCYS 191120Z 1912/2012 30009KT P6SM FEW200
     FM191800 35007KT P6SM FEW200
     FM192200 VRB06KT P6SM SKC=



000
FTUS45 KCYS 191100
TAFCYS
TAF
KCYS 191120Z 1912/2012 30009KT P6SM FEW200
     FM191800 35007KT P6SM FEW200
     FM192200 VRB06KT P6SM SKC=



000
FTUS45 KCYS 190500
TAFLAR
TAF
KLAR 190520Z 1906/2006 VRB04KT P6SM SCT200
     FM191800 35006KT P6SM SCT200
     FM200000 12007KT P6SM SCT200=



000
FTUS45 KCYS 190500
TAFCYS
TAF
KCYS 190520Z 1906/2006 30009KT P6SM SCT200
     FM191800 35007KT P6SM SCT200
     FM192200 11006KT P6SM SCT200=



000
FTUS45 KCYS 190500
TAFRWL
TAF
KRWL 190520Z 1906/2006 27005KT P6SM SCT200
     FM191800 25010KT P6SM SCT200
     FM200200 VRB04KT P6SM SCT200=



000
FTUS45 KCYS 190500
TAFLAR
TAF
KLAR 190520Z 1906/2006 VRB04KT P6SM SCT200
     FM191800 35006KT P6SM SCT200
     FM200000 12007KT P6SM SCT200=



000
FTUS45 KCYS 190500
TAFCYS
TAF
KCYS 190520Z 1906/2006 30009KT P6SM SCT200
     FM191800 35007KT P6SM SCT200
     FM192200 11006KT P6SM SCT200=



000
FTUS45 KCYS 190500
TAFRWL
TAF
KRWL 190520Z 1906/2006 27005KT P6SM SCT200
     FM191800 25010KT P6SM SCT200
     FM200200 VRB04KT P6SM SCT200=



000
FTUS45 KCYS 182300
TAFLAR
TAF
KLAR 182337Z 1900/1924 02008KT P6SM SCT200
     FM190200 19006KT P6SM SCT200
     FM191800 35006KT P6SM SCT200=



000
FTUS45 KCYS 182300
TAFCYS
TAF
KCYS 182337Z 1900/1924 19009KT P6SM SCT200
     FM190600 30009KT P6SM SCT200
     FM191800 35007KT P6SM SCT200=



000
FTUS45 KCYS 182300
TAFLAR
TAF
KLAR 182337Z 1900/1924 02008KT P6SM SCT200
     FM190200 19006KT P6SM SCT200
     FM191800 35006KT P6SM SCT200=



000
FTUS45 KCYS 182300
TAFRWL
TAF
KRWL 182337Z 1900/1924 27006KT P6SM SCT200
     FM191800 25010KT P6SM SCT200=



000
FTUS45 KCYS 182300
TAFRWL
TAF
KRWL 182337Z 1900/1924 27006KT P6SM SCT200
     FM191800 25010KT P6SM SCT200=



000
FTUS45 KCYS 182300
TAFCYS
TAF
KCYS 182337Z 1900/1924 19009KT P6SM SCT200
     FM190600 30009KT P6SM SCT200
     FM191800 35007KT P6SM SCT200=



000
FTUS45 KCYS 181700
TAFCYS
TAF
KCYS 181720Z 1818/1918 20012KT P6SM SCT250
     FM190000 25006KT P6SM SCT200
     FM190600 30009KT P6SM SCT200=



000
FTUS45 KCYS 181700
TAFLAR
TAF
KLAR 181720Z 1818/1918 22012KT P6SM SCT250
     FM182100 27012KT P6SM SCT200
     FM190200 23007KT P6SM SCT200=



000
FTUS45 KCYS 181700
TAFRWL
TAF
KRWL 181720Z 1818/1918 24010KT P6SM SCT250
     FM181900 25012G18KT P6SM SCT200
     FM190000 26007KT P6SM SCT200=



000
FTUS45 KCYS 181700
TAFLAR
TAF
KLAR 181720Z 1818/1918 22012KT P6SM SCT250
     FM182100 27012KT P6SM SCT200
     FM190200 23007KT P6SM SCT200=



000
FTUS45 KCYS 181700
TAFRWL
TAF
KRWL 181720Z 1818/1918 24010KT P6SM SCT250
     FM181900 25012G18KT P6SM SCT200
     FM190000 26007KT P6SM SCT200=



000
FTUS45 KCYS 181700
TAFCYS
TAF
KCYS 181720Z 1818/1918 20012KT P6SM SCT250
     FM190000 25006KT P6SM SCT200
     FM190600 30009KT P6SM SCT200=



000
FTUS45 KCYS 181100
TAFLAR
TAF
KLAR 181137Z 1812/1912 18008KT P6SM BKN250
     FM181800 20009KT P6SM BKN250
     FM182100 26010KT P6SM BKN200
     FM190300 24007KT P6SM OVC150=



000
FTUS45 KCYS 181100
TAFLAR
TAF
KLAR 181137Z 1812/1912 18008KT P6SM BKN250
     FM181800 20009KT P6SM BKN250
     FM182100 26010KT P6SM BKN200
     FM190300 24007KT P6SM OVC150=



000
FTUS45 KCYS 181100
TAFRWL
TAF
KRWL 181137Z 1812/1912 VRB03KT P6SM BKN250
     FM181800 25013G19KT P6SM BKN200
     FM182300 24008KT P6SM BKN150=



000
FTUS45 KCYS 181100
TAFCYS
TAF
KCYS 181137Z 1812/1912 23007KT P6SM SCT250
     FM181900 19010KT P6SM BKN200
     FM190600 30007KT P6SM BKN150=



000
FTUS45 KCYS 181100
TAFCYS
TAF
KCYS 181137Z 1812/1912 23007KT P6SM SCT250
     FM181900 19010KT P6SM BKN200
     FM190600 30007KT P6SM BKN150=



000
FTUS45 KCYS 181100
TAFLAR
TAF
KLAR 181137Z 1812/1912 18008KT P6SM BKN250
     FM181800 20009KT P6SM BKN250
     FM182100 26010KT P6SM BKN200
     FM190300 24007KT P6SM OVC150=



000
FTUS45 KCYS 181100
TAFLAR
TAF
KLAR 181137Z 1812/1912 18008KT P6SM BKN250
     FM181800 20009KT P6SM BKN250
     FM182100 26010KT P6SM BKN200
     FM190300 24007KT P6SM OVC150=



000
FTUS45 KCYS 181100
TAFCYS
TAF
KCYS 181137Z 1812/1912 23007KT P6SM SCT250
     FM181900 19010KT P6SM BKN200
     FM190600 30007KT P6SM BKN150=



000
FTUS45 KCYS 181100
TAFRWL
TAF
KRWL 181137Z 1812/1912 VRB03KT P6SM BKN250
     FM181800 25013G19KT P6SM BKN200
     FM182300 24008KT P6SM BKN150=



000
FTUS45 KCYS 181100
TAFRWL
TAF
KRWL 181137Z 1812/1912 VRB03KT P6SM BKN250
     FM181800 25013G19KT P6SM BKN200
     FM182300 24008KT P6SM BKN150=



000
FTUS45 KCYS 181100
TAFCYS
TAF
KCYS 181137Z 1812/1912 23007KT P6SM SCT250
     FM181900 19010KT P6SM BKN200
     FM190600 30007KT P6SM BKN150=



000
FTUS45 KCYS 181100
TAFRWL
TAF
KRWL 181137Z 1812/1912 VRB03KT P6SM BKN250
     FM181800 25013G19KT P6SM BKN200
     FM182300 24008KT P6SM BKN150=



000
FTUS45 KCYS 180500
TAFRWL
TAF
KRWL 180520Z 1806/1906 VRB03KT P6SM SCT250
     FM181800 25013G19KT P6SM BKN200
     FM182300 24008KT P6SM SCT200=



000
FTUS45 KCYS 180500
TAFCYS
TAF
KCYS 180520Z 1806/1906 17009KT P6SM BKN200
     FM181800 19011G19KT P6SM SCT150 BKN200
     FM190100 21007KT P6SM SCT200=



000
FTUS45 KCYS 180500
TAFCYS
TAF
KCYS 180520Z 1806/1906 17009KT P6SM BKN200
     FM181800 19011G19KT P6SM SCT150 BKN200
     FM190100 21007KT P6SM SCT200=



000
FTUS45 KCYS 180500
TAFLAR
TAF
KLAR 180520Z 1806/1906 18008KT P6SM BKN200
     FM182100 20009KT P6SM SCT200=



000
FTUS45 KCYS 180500
TAFRWL
TAF
KRWL 180520Z 1806/1906 VRB03KT P6SM SCT250
     FM181800 25013G19KT P6SM BKN200
     FM182300 24008KT P6SM SCT200=



000
FTUS45 KCYS 180500
TAFLAR
TAF
KLAR 180520Z 1806/1906 18008KT P6SM BKN200
     FM182100 20009KT P6SM SCT200=



000
FTUS45 KCYS 172300
TAFLAR
TAF
KLAR 172336Z 1800/1824 18008KT P6SM BKN200=



000
FTUS45 KCYS 172300
TAFLAR
TAF
KLAR 172336Z 1800/1824 18008KT P6SM BKN200=



000
FTUS45 KCYS 172300
TAFCYS
TAF
KCYS 172336Z 1800/1824 17009KT P6SM BKN200
     FM181800 19011G19KT P6SM SCT150 BKN200=



000
FTUS45 KCYS 172300
TAFLAR
TAF
KLAR 172336Z 1800/1824 18008KT P6SM BKN200=



000
FTUS45 KCYS 172300
TAFRWL
TAF
KRWL 172336Z 1800/1824 25009KT P6SM BKN200
     FM180200 VRB03KT P6SM SCT250
     FM181800 25013G19KT P6SM BKN200=



000
FTUS45 KCYS 172300
TAFRWL
TAF
KRWL 172336Z 1800/1824 25009KT P6SM BKN200
     FM180200 VRB03KT P6SM SCT250
     FM181800 25013G19KT P6SM BKN200=



000
FTUS45 KCYS 172300
TAFLAR
TAF
KLAR 172336Z 1800/1824 18008KT P6SM BKN200=



000
FTUS45 KCYS 172300
TAFRWL
TAF
KRWL 172336Z 1800/1824 25009KT P6SM BKN200
     FM180200 VRB03KT P6SM SCT250
     FM181800 25013G19KT P6SM BKN200=



000
FTUS45 KCYS 172300
TAFCYS
TAF
KCYS 172336Z 1800/1824 17009KT P6SM BKN200
     FM181800 19011G19KT P6SM SCT150 BKN200=



000
FTUS45 KCYS 172300
TAFCYS
TAF
KCYS 172336Z 1800/1824 17009KT P6SM BKN200
     FM181800 19011G19KT P6SM SCT150 BKN200=



000
FTUS45 KCYS 172300
TAFRWL
TAF
KRWL 172336Z 1800/1824 25009KT P6SM BKN200
     FM180200 VRB03KT P6SM SCT250
     FM181800 25013G19KT P6SM BKN200=



000
FTUS45 KCYS 172300
TAFCYS
TAF
KCYS 172336Z 1800/1824 17009KT P6SM BKN200
     FM181800 19011G19KT P6SM SCT150 BKN200=



    US Dept of Commerce
    National Oceanic and Atmospheric Administration
    National Weather Service
    1325 East West Highway
    Silver Spring, MD 20910
    Page Author: NWS Internet Services Team
Disclaimer
Information Quality
Credits
Glossary
Privacy Policy
Freedom of Information Act (FOIA)
About Us
Career Opportunities